sensor_id;sensor_type;location;lat;lon;timestamp;pressure;altitude;pressure_sealevel;temperature;humidity
83248;BME280;73465;51.038;7.052;2023-12-07T00:01:07;101180.69;;;21.57;43.95
83248;BME280;73465;51.038;7.052;2023-12-07T00:03:33;101175.44;;;21.55;43.81
83248;BME280;73465;51.038;7.052;2023-12-07T00:05:58;101182.75;;;21.53;43.85
83248;BME280;73465;51.038;7.052;2023-12-07T00:08:24;101192.47;;;21.54;43.88
83248;BME280;73465;51.038;7.052;2023-12-07T00:10:49;101185.41;;;21.53;43.84
83248;BME280;73465;51.038;7.052;2023-12-07T00:13:15;101187.25;;;21.53;43.73
83248;BME280;73465;51.038;7.052;2023-12-07T00:15:40;101180.34;;;21.50;43.83
83248;BME280;73465;51.038;7.052;2023-12-07T00:18:06;101175.81;;;21.51;44.17
83248;BME280;73465;51.038;7.052;2023-12-07T00:20:31;101174.25;;;21.48;43.86
83248;BME280;73465;51.038;7.052;2023-12-07T00:22:56;101177.06;;;21.46;43.42
83248;BME280;73465;51.038;7.052;2023-12-07T00:25:34;101180.34;;;21.50;43.77
83248;BME280;73465;51.038;7.052;2023-12-07T00:28:17;101178.19;;;21.44;43.91
83248;BME280;73465;51.038;7.052;2023-12-07T00:30:42;101172.81;;;21.44;43.86
83248;BME280;73465;51.038;7.052;2023-12-07T00:33:08;101171.94;;;21.43;44.00
83248;BME280;73465;51.038;7.052;2023-12-07T00:35:34;101172.94;;;21.42;43.95
83248;BME280;73465;51.038;7.052;2023-12-07T00:37:59;101172.94;;;21.42;44.02
83248;BME280;73465;51.038;7.052;2023-12-07T00:40:25;101173.94;;;21.41;44.14
83248;BME280;73465;51.038;7.052;2023-12-07T00:42:50;101172.38;;;21.39;44.17
83248;BME280;73465;51.038;7.052;2023-12-07T00:45:16;101177.59;;;21.40;43.96
83248;BME280;73465;51.038;7.052;2023-12-07T00:47:41;101180.41;;;21.39;44.09
83248;BME280;73465;51.038;7.052;2023-12-07T00:50:11;101177.59;;;21.40;44.13
83248;BME280;73465;51.038;7.052;2023-12-07T00:52:40;101177.81;;;21.37;44.05
83248;BME280;73465;51.038;7.052;2023-12-07T00:55:06;101180.41;;;21.39;44.07
83248;BME280;73465;51.038;7.052;2023-12-07T00:57:31;101187.56;;;21.38;44.09
83248;BME280;73465;51.038;7.052;2023-12-07T00:59:57;101188.69;;;21.36;44.08
83248;BME280;73465;51.038;7.052;2023-12-07T01:02:22;101187.84;;;21.35;44.07
83248;BME280;73465;51.038;7.052;2023-12-07T01:04:48;101195.88;;;21.35;43.81
83248;BME280;73465;51.038;7.052;2023-12-07T01:07:13;101197.81;;;21.33;44.08
83248;BME280;73465;51.038;7.052;2023-12-07T01:09:39;101197.81;;;21.33;44.21
83248;BME280;73465;51.038;7.052;2023-12-07T01:12:04;101195.00;;;21.35;44.06
83248;BME280;73465;51.038;7.052;2023-12-07T01:14:29;101196.13;;;21.32;44.09
83248;BME280;73465;51.038;7.052;2023-12-07T01:16:55;101189.19;;;21.29;44.18
83248;BME280;73465;51.038;7.052;2023-12-07T01:19:20;101197.22;;;21.29;44.20
83248;BME280;73465;51.038;7.052;2023-12-07T01:21:46;101194.41;;;21.31;43.91
83248;BME280;73465;51.038;7.052;2023-12-07T01:24:12;101192.75;;;21.30;44.22
83248;BME280;73465;51.038;7.052;2023-12-07T01:26:37;101192.75;;;21.30;44.23
83248;BME280;73465;51.038;7.052;2023-12-07T01:29:03;101199.06;;;21.29;44.21
83248;BME280;73465;51.038;7.052;2023-12-07T01:31:29;101199.06;;;21.29;44.16
83248;BME280;73465;51.038;7.052;2023-12-07T01:33:55;101200.88;;;21.28;43.97
83248;BME280;73465;51.038;7.052;2023-12-07T01:36:21;101201.03;;;21.27;44.10
83248;BME280;73465;51.038;7.052;2023-12-07T01:38:46;101197.59;;;21.25;44.15
83248;BME280;73465;51.038;7.052;2023-12-07T01:41:12;101194.94;;;21.25;44.57
83248;BME280;73465;51.038;7.052;2023-12-07T01:43:37;101194.94;;;21.25;44.33
83248;BME280;73465;51.038;7.052;2023-12-07T01:46:03;101195.91;;;21.24;44.19
83248;BME280;73465;51.038;7.052;2023-12-07T01:48:29;101200.28;;;21.25;44.27
83248;BME280;73465;51.038;7.052;2023-12-07T01:50:57;101196.63;;;21.26;44.18
83248;BME280;73465;51.038;7.052;2023-12-07T01:53:23;101197.75;;;21.23;44.11
83248;BME280;73465;51.038;7.052;2023-12-07T01:55:51;101198.56;;;21.24;44.46
83248;BME280;73465;51.038;7.052;2023-12-07T01:58:18;101201.41;;;21.22;44.14
83248;BME280;73465;51.038;7.052;2023-12-07T02:00:46;101210.16;;;21.24;44.12
83248;BME280;73465;51.038;7.052;2023-12-07T02:03:12;101205.19;;;21.20;44.28
83248;BME280;73465;51.038;7.052;2023-12-07T02:05:42;101203.38;;;21.20;44.12
83248;BME280;73465;51.038;7.052;2023-12-07T02:08:08;101207.03;;;21.19;44.21
83248;BME280;73465;51.038;7.052;2023-12-07T02:10:34;101212.38;;;21.19;44.24
83248;BME280;73465;51.038;7.052;2023-12-07T02:12:59;101212.47;;;21.17;44.35
83248;BME280;73465;51.038;7.052;2023-12-07T02:15:25;101208.13;;;21.16;44.27
83248;BME280;73465;51.038;7.052;2023-12-07T02:20:52;101221.47;;;20.84;44.68
83248;BME280;73465;51.038;7.052;2023-12-07T02:23:23;101227.28;;;21.00;44.54
83248;BME280;73465;51.038;7.052;2023-12-07T02:26:22;101234.81;;;21.07;44.26
83248;BME280;73465;51.038;7.052;2023-12-07T02:28:50;101230.56;;;21.04;44.39
83248;BME280;73465;51.038;7.052;2023-12-07T02:31:17;101236.63;;;21.06;44.21
83248;BME280;73465;51.038;7.052;2023-12-07T02:33:47;101232.84;;;21.09;44.37
83248;BME280;73465;51.038;7.052;2023-12-07T02:36:14;101239.06;;;21.09;44.35
83248;BME280;73465;51.038;7.052;2023-12-07T02:38:44;101246.22;;;21.09;44.21
83248;BME280;73465;51.038;7.052;2023-12-07T02:41:09;101233.09;;;21.06;44.40
83248;BME280;73465;51.038;7.052;2023-12-07T02:43:36;101241.00;;;21.07;44.40
83248;BME280;73465;51.038;7.052;2023-12-07T02:46:02;101246.38;;;21.07;44.15
83248;BME280;73465;51.038;7.052;2023-12-07T02:48:30;101251.72;;;21.07;44.42
83248;BME280;73465;51.038;7.052;2023-12-07T02:50:55;101231.41;;;21.05;44.42
83248;BME280;73465;51.038;7.052;2023-12-07T02:53:21;101232.97;;;21.07;44.45
83248;BME280;73465;51.038;7.052;2023-12-07T02:55:49;101231.13;;;21.08;44.49
83248;BME280;73465;51.038;7.052;2023-12-07T02:58:17;101228.34;;;21.09;44.39
83248;BME280;73465;51.038;7.052;2023-12-07T03:00:43;101222.41;;;21.06;44.33
83248;BME280;73465;51.038;7.052;2023-12-07T03:03:08;101208.41;;;21.02;44.45
83248;BME280;73465;51.038;7.052;2023-12-07T03:05:34;101220.69;;;21.05;44.60
83248;BME280;73465;51.038;7.052;2023-12-07T03:07:59;101226.03;;;21.05;44.43
83248;BME280;73465;51.038;7.052;2023-12-07T03:10:25;101218.97;;;21.04;44.37
83248;BME280;73465;51.038;7.052;2023-12-07T03:12:50;101220.09;;;21.01;44.65
83248;BME280;73465;51.038;7.052;2023-12-07T03:15:16;101212.06;;;21.01;44.55
83248;BME280;73465;51.038;7.052;2023-12-07T03:17:41;101211.09;;;21.02;44.56
83248;BME280;73465;51.038;7.052;2023-12-07T03:20:09;101214.75;;;21.01;44.59
83248;BME280;73465;51.038;7.052;2023-12-07T03:22:35;101213.03;;;21.00;44.57
83248;BME280;73465;51.038;7.052;2023-12-07T03:25:01;101210.50;;;20.98;44.01
83248;BME280;73465;51.038;7.052;2023-12-07T03:27:26;101211.31;;;20.99;44.51
83248;BME280;73465;51.038;7.052;2023-12-07T03:29:53;101211.31;;;20.99;44.47
83248;BME280;73465;51.038;7.052;2023-12-07T03:32:19;101216.69;;;20.99;44.55
83248;BME280;73465;51.038;7.052;2023-12-07T03:34:44;101222.03;;;20.99;44.48
83248;BME280;73465;51.038;7.052;2023-12-07T03:37:09;101214.13;;;20.97;44.40
83248;BME280;73465;51.038;7.052;2023-12-07T03:39:35;101208.03;;;20.95;44.46
83248;BME280;73465;51.038;7.052;2023-12-07T03:42:00;101211.59;;;20.96;44.48
83248;BME280;73465;51.038;7.052;2023-12-07T03:44:25;101212.56;;;20.95;44.52
83248;BME280;73465;51.038;7.052;2023-12-07T03:46:52;101210.72;;;20.95;44.64
83248;BME280;73465;51.038;7.052;2023-12-07T03:49:17;101211.72;;;20.94;44.50
83248;BME280;73465;51.038;7.052;2023-12-07T03:51:43;101209.16;;;20.93;44.64
83248;BME280;73465;51.038;7.052;2023-12-07T03:54:08;101204.91;;;20.90;44.61
83248;BME280;73465;51.038;7.052;2023-12-07T03:56:33;101196.03;;;20.90;44.84
83248;BME280;73465;51.038;7.052;2023-12-07T03:58:59;101207.56;;;20.90;44.48
83248;BME280;73465;51.038;7.052;2023-12-07T04:01:25;101203.09;;;20.91;44.88
83248;BME280;73465;51.038;7.052;2023-12-07T04:03:52;101219.75;;;20.94;44.84
83248;BME280;73465;51.038;7.052;2023-12-07T04:06:17;101210.13;;;20.92;44.63
83248;BME280;73465;51.038;7.052;2023-12-07T04:08:43;101216.81;;;20.97;44.81
83248;BME280;73465;51.038;7.052;2023-12-07T04:11:09;101214.00;;;20.99;44.66
83248;BME280;73465;51.038;7.052;2023-12-07T04:13:34;101217.28;;;21.03;44.71
83248;BME280;73465;51.038;7.052;2023-12-07T04:15:59;101213.63;;;21.04;44.75
83248;BME280;73465;51.038;7.052;2023-12-07T04:18:24;101215.94;;;21.08;44.80
83248;BME280;73465;51.038;7.052;2023-12-07T04:20:50;101211.41;;;21.09;44.64
83248;BME280;73465;51.038;7.052;2023-12-07T04:23:15;101207.53;;;21.13;45.06
83248;BME280;73465;51.038;7.052;2023-12-07T04:25:40;101208.38;;;21.13;44.64
83248;BME280;73465;51.038;7.052;2023-12-07T04:28:06;101210.91;;;21.15;44.45
83248;BME280;73465;51.038;7.052;2023-12-07T04:30:31;101216.88;;;21.19;44.50
83248;BME280;73465;51.038;7.052;2023-12-07T04:32:56;101216.88;;;21.19;44.59
83248;BME280;73465;51.038;7.052;2023-12-07T04:35:22;101218.72;;;21.18;44.59
83248;BME280;73465;51.038;7.052;2023-12-07T04:37:47;101222.81;;;21.22;44.68
83248;BME280;73465;51.038;7.052;2023-12-07T04:40:12;101225.38;;;21.24;44.38
83248;BME280;73465;51.038;7.052;2023-12-07T04:42:38;101227.06;;;21.25;44.76
83248;BME280;73465;51.038;7.052;2023-12-07T04:45:03;101221.47;;;21.28;44.47
83248;BME280;73465;51.038;7.052;2023-12-07T04:47:29;101223.28;;;21.27;44.51
83248;BME280;73465;51.038;7.052;2023-12-07T04:49:54;101217.81;;;21.29;44.44
83248;BME280;73465;51.038;7.052;2023-12-07T04:52:20;101224.00;;;21.29;44.55
83248;BME280;73465;51.038;7.052;2023-12-07T04:54:45;101217.81;;;21.29;44.69
83248;BME280;73465;51.038;7.052;2023-12-07T04:57:11;101226.47;;;21.32;44.39
83248;BME280;73465;51.038;7.052;2023-12-07T04:59:36;101228.25;;;21.32;44.56
83248;BME280;73465;51.038;7.052;2023-12-07T05:02:01;101235.31;;;21.33;44.62
83248;BME280;73465;51.038;7.052;2023-12-07T05:04:27;101231.81;;;21.32;44.65
83248;BME280;73465;51.038;7.052;2023-12-07T05:09:19;101245.06;;;21.34;44.74
83248;BME280;73465;51.038;7.052;2023-12-07T05:11:46;101240.69;;;21.33;44.73
83248;BME280;73465;51.038;7.052;2023-12-07T05:14:12;101240.81;;;21.31;44.68
83248;BME280;73465;51.038;7.052;2023-12-07T05:16:37;101251.78;;;21.28;44.64
83248;BME280;73465;51.038;7.052;2023-12-07T05:19:02;101248.25;;;21.28;44.54
83248;BME280;73465;51.038;7.052;2023-12-07T05:21:28;101249.97;;;21.29;44.79
83248;BME280;73465;51.038;7.052;2023-12-07T05:23:53;101255.31;;;21.29;44.77
83248;BME280;73465;51.038;7.052;2023-12-07T05:26:19;101257.28;;;21.27;44.74
83248;BME280;73465;51.038;7.052;2023-12-07T05:28:44;101253.84;;;21.25;44.96
83248;BME280;73465;51.038;7.052;2023-12-07T05:31:18;101255.31;;;21.29;44.64
83248;BME280;73465;51.038;7.052;2023-12-07T05:33:44;101259.34;;;21.23;44.77
83248;BME280;73465;51.038;7.052;2023-12-07T05:36:09;101256.66;;;21.23;44.79
83248;BME280;73465;51.038;7.052;2023-12-07T05:38:35;101255.09;;;21.21;44.97
83248;BME280;73465;51.038;7.052;2023-12-07T05:41:00;101263.13;;;21.21;44.87
83248;BME280;73465;51.038;7.052;2023-12-07T05:43:25;101264.09;;;21.20;44.86
83248;BME280;73465;51.038;7.052;2023-12-07T05:45:51;101266.78;;;21.20;44.91
83248;BME280;73465;51.038;7.052;2023-12-07T05:48:16;101265.06;;;21.19;44.80
83248;BME280;73465;51.038;7.052;2023-12-07T05:50:41;101262.28;;;21.20;44.83
83248;BME280;73465;51.038;7.052;2023-12-07T05:53:07;101263.13;;;21.21;44.84
83248;BME280;73465;51.038;7.052;2023-12-07T05:55:32;101257.78;;;21.21;44.76
83248;BME280;73465;51.038;7.052;2023-12-07T05:57:58;101256.81;;;21.22;44.79
83248;BME280;73465;51.038;7.052;2023-12-07T06:00:23;101254.00;;;21.23;44.70
83248;BME280;73465;51.038;7.052;2023-12-07T06:02:50;101251.91;;;21.27;44.67
83248;BME280;73465;51.038;7.052;2023-12-07T06:05:15;101250.94;;;21.28;44.72
83248;BME280;73465;51.038;7.052;2023-12-07T06:07:40;101251.66;;;21.30;44.71
83248;BME280;73465;51.038;7.052;2023-12-07T06:10:06;101254.34;;;21.30;44.45
83248;BME280;73465;51.038;7.052;2023-12-07T06:12:32;101249.84;;;21.30;44.71
83248;BME280;73465;51.038;7.052;2023-12-07T06:14:57;101238.97;;;21.32;44.66
83248;BME280;73465;51.038;7.052;2023-12-07T06:17:22;101246.88;;;21.33;44.57
83248;BME280;73465;51.038;7.052;2023-12-07T06:19:48;101252.25;;;21.33;44.51
83248;BME280;73465;51.038;7.052;2023-12-07T06:22:13;101253.09;;;21.34;44.79
83248;BME280;73465;51.038;7.052;2023-12-07T06:24:39;101238.75;;;21.35;44.84
83248;BME280;73465;51.038;7.052;2023-12-07T06:27:04;101234.34;;;21.34;44.82
83248;BME280;73465;51.038;7.052;2023-12-07T06:29:30;101234.50;;;21.32;44.85
83248;BME280;73465;51.038;7.052;2023-12-07T06:31:55;101236.16;;;21.33;45.03
83248;BME280;73465;51.038;7.052;2023-12-07T06:34:21;101234.50;;;21.32;44.83
83248;BME280;73465;51.038;7.052;2023-12-07T06:36:46;101227.44;;;21.31;44.87
83248;BME280;73465;51.038;7.052;2023-12-07T06:39:12;101225.72;;;21.30;44.69
83248;BME280;73465;51.038;7.052;2023-12-07T06:41:38;101224.88;;;21.30;44.97
83248;BME280;73465;51.038;7.052;2023-12-07T06:44:04;101227.56;;;21.30;45.00
83248;BME280;73465;51.038;7.052;2023-12-07T06:46:29;101229.66;;;21.26;44.86
83248;BME280;73465;51.038;7.052;2023-12-07T06:48:54;101220.88;;;21.24;44.83
83248;BME280;73465;51.038;7.052;2023-12-07T06:51:20;101221.00;;;21.23;44.82
83248;BME280;73465;51.038;7.052;2023-12-07T06:53:45;101221.97;;;21.22;44.98
83248;BME280;73465;51.038;7.052;2023-12-07T06:56:10;101221.00;;;21.23;45.43
83248;BME280;73465;51.038;7.052;2023-12-07T06:58:36;101216.63;;;21.22;45.02
83248;BME280;73465;51.038;7.052;2023-12-07T07:01:01;101234.50;;;21.21;45.04
83248;BME280;73465;51.038;7.052;2023-12-07T07:03:26;101223.09;;;21.19;44.85
83248;BME280;73465;51.038;7.052;2023-12-07T07:05:54;101228.19;;;21.22;45.13
83248;BME280;73465;51.038;7.052;2023-12-07T07:08:20;101228.25;;;21.32;45.52
83248;BME280;73465;51.038;7.052;2023-12-07T07:10:45;101224.63;;;21.33;45.23
83248;BME280;73465;51.038;7.052;2023-12-07T07:13:12;101229.97;;;21.33;45.04
83248;BME280;73465;51.038;7.052;2023-12-07T07:15:41;101215.00;;;21.30;44.93
83248;BME280;73465;51.038;7.052;2023-12-07T07:18:07;101217.34;;;20.80;36.97
83248;BME280;73465;51.038;7.052;2023-12-07T07:20:32;101228.06;;;18.90;36.34
83248;BME280;73465;51.038;7.052;2023-12-07T07:22:57;101230.00;;;17.59;36.91
83248;BME280;73465;51.038;7.052;2023-12-07T07:25:23;101233.47;;;16.49;38.34
83248;BME280;73465;51.038;7.052;2023-12-07T07:27:48;101237.06;;;16.48;40.66
83248;BME280;73465;51.038;7.052;2023-12-07T07:30:14;101232.06;;;17.14;41.94
83248;BME280;73465;51.038;7.052;2023-12-07T07:32:39;101233.53;;;17.73;41.73
83248;BME280;73465;51.038;7.052;2023-12-07T07:35:05;101237.66;;;18.17;41.79
83248;BME280;73465;51.038;7.052;2023-12-07T07:37:31;101239.91;;;18.49;42.12
83248;BME280;73465;51.038;7.052;2023-12-07T07:39:56;101236.22;;;18.76;41.56
83248;BME280;73465;51.038;7.052;2023-12-07T07:42:22;101248.16;;;18.96;41.73
83248;BME280;73465;51.038;7.052;2023-12-07T07:44:47;101239.06;;;19.12;41.95
83248;BME280;73465;51.038;7.052;2023-12-07T07:47:12;101241.66;;;19.24;41.99
83248;BME280;73465;51.038;7.052;2023-12-07T07:49:37;101233.59;;;19.37;42.46
83248;BME280;73465;51.038;7.052;2023-12-07T07:52:04;101238.13;;;19.48;42.47
83248;BME280;73465;51.038;7.052;2023-12-07T07:54:30;101235.59;;;19.58;42.41
83248;BME280;73465;51.038;7.052;2023-12-07T07:56:55;101237.47;;;19.69;42.84
83248;BME280;73465;51.038;7.052;2023-12-07T07:59:21;101237.50;;;19.80;42.67
83248;BME280;73465;51.038;7.052;2023-12-07T08:01:46;101242.31;;;19.88;42.94
83248;BME280;73465;51.038;7.052;2023-12-07T08:04:15;101223.00;;;19.96;43.15
83248;BME280;73465;51.038;7.052;2023-12-07T08:06:40;101231.03;;;20.07;43.11
83248;BME280;73465;51.038;7.052;2023-12-07T08:09:07;101233.13;;;20.15;43.21
83248;BME280;73465;51.038;7.052;2023-12-07T08:11:33;101234.22;;;20.24;43.15
83248;BME280;73465;51.038;7.052;2023-12-07T08:13:58;101240.81;;;20.31;43.20
83248;BME280;73465;51.038;7.052;2023-12-07T08:16:23;101234.00;;;20.38;43.20
83248;BME280;73465;51.038;7.052;2023-12-07T08:18:49;101236.06;;;20.46;43.27
83248;BME280;73465;51.038;7.052;2023-12-07T08:21:24;101242.38;;;20.56;43.33
83248;BME280;73465;51.038;7.052;2023-12-07T08:26:16;101238.00;;;20.66;43.27
83248;BME280;73465;51.038;7.052;2023-12-07T08:28:42;101247.28;;;20.74;43.21
83248;BME280;73465;51.038;7.052;2023-12-07T08:31:07;101244.22;;;20.78;43.19
83248;BME280;73465;51.038;7.052;2023-12-07T08:33:33;101243.75;;;20.84;43.09
83248;BME280;73465;51.038;7.052;2023-12-07T08:36:04;101249.31;;;20.93;43.58
83248;BME280;73465;51.038;7.052;2023-12-07T08:38:31;101254.06;;;21.00;43.23
83248;BME280;73465;51.038;7.052;2023-12-07T08:40:57;101248.56;;;21.02;43.42
83248;BME280;73465;51.038;7.052;2023-12-07T08:43:23;101249.78;;;21.09;43.38
83248;BME280;73465;51.038;7.052;2023-12-07T08:45:50;101250.25;;;21.14;43.31
83248;BME280;73465;51.038;7.052;2023-12-07T08:48:15;101256.19;;;21.18;43.56
83248;BME280;73465;51.038;7.052;2023-12-07T08:50:41;101250.72;;;21.20;43.31
83248;BME280;73465;51.038;7.052;2023-12-07T08:53:06;101253.63;;;21.28;43.21
83248;BME280;73465;51.038;7.052;2023-12-07T08:55:32;101262.72;;;21.37;43.17
83248;BME280;73465;51.038;7.052;2023-12-07T08:57:57;101259.66;;;21.41;43.30
83248;BME280;73465;51.038;7.052;2023-12-07T09:00:24;101258.41;;;21.45;43.18
83248;BME280;73465;51.038;7.052;2023-12-07T09:02:50;101264.25;;;21.51;42.96
83248;BME280;73465;51.038;7.052;2023-12-07T09:05:17;101267.16;;;21.59;43.04
83248;BME280;73465;51.038;7.052;2023-12-07T09:07:43;101269.72;;;21.60;43.08
83248;BME280;73465;51.038;7.052;2023-12-07T09:10:11;101267.63;;;21.64;43.07
83248;BME280;73465;51.038;7.052;2023-12-07T09:12:37;101264.84;;;21.66;42.97
83248;BME280;73465;51.038;7.052;2023-12-07T09:15:03;101266.13;;;21.71;43.03
83248;BME280;73465;51.038;7.052;2023-12-07T09:17:28;101265.03;;;21.74;42.86
83248;BME280;73465;51.038;7.052;2023-12-07T09:19:54;101262.84;;;21.79;43.02
83248;BME280;73465;51.038;7.052;2023-12-07T09:22:19;101249.88;;;21.84;42.84
83248;BME280;73465;51.038;7.052;2023-12-07T09:24:45;101260.91;;;21.91;42.88
83248;BME280;73465;51.038;7.052;2023-12-07T09:27:13;101262.09;;;21.98;42.98
83248;BME280;73465;51.038;7.052;2023-12-07T09:29:38;101260.84;;;22.02;42.66
83248;BME280;73465;51.038;7.052;2023-12-07T09:32:04;101249.13;;;22.03;42.60
83248;BME280;73465;51.038;7.052;2023-12-07T09:34:29;101248.16;;;22.04;42.79
83248;BME280;73465;51.038;7.052;2023-12-07T09:37:08;101250.47;;;22.09;42.41
83248;BME280;73465;51.038;7.052;2023-12-07T09:39:33;101254.41;;;22.05;42.67
83248;BME280;73465;51.038;7.052;2023-12-07T09:41:59;101255.97;;;22.07;42.79
83248;BME280;73465;51.038;7.052;2023-12-07T09:44:25;101261.03;;;22.10;42.73
83248;BME280;73465;51.038;7.052;2023-12-07T09:46:50;101254.56;;;22.13;42.77
83248;BME280;73465;51.038;7.052;2023-12-07T09:49:16;101258.81;;;22.16;42.75
83248;BME280;73465;51.038;7.052;2023-12-07T09:51:44;101251.25;;;22.21;42.78
83248;BME280;73465;51.038;7.052;2023-12-07T09:54:10;101251.25;;;22.21;42.63
83248;BME280;73465;51.038;7.052;2023-12-07T09:56:36;101246.56;;;22.23;42.64
83248;BME280;73465;51.038;7.052;2023-12-07T09:59:01;101237.41;;;22.25;42.71
83248;BME280;73465;51.038;7.052;2023-12-07T10:01:30;101250.44;;;22.30;42.84
83248;BME280;73465;51.038;7.052;2023-12-07T10:04:18;101241.41;;;22.31;42.62
83248;BME280;73465;51.038;7.052;2023-12-07T10:06:44;101236.03;;;22.31;42.72
83248;BME280;73465;51.038;7.052;2023-12-07T10:09:13;101232.22;;;22.34;42.72
83248;BME280;73465;51.038;7.052;2023-12-07T10:11:39;101221.22;;;20.87;45.87
83248;BME280;73465;51.038;7.052;2023-12-07T10:14:07;101232.53;;;20.34;46.96
83248;BME280;73465;51.038;7.052;2023-12-07T10:16:34;101237.66;;;20.37;47.13
83248;BME280;73465;51.038;7.052;2023-12-07T10:19:15;101240.50;;;20.00;47.45
83248;BME280;73465;51.038;7.052;2023-12-07T10:21:44;101234.16;;;19.90;47.87
83248;BME280;73465;51.038;7.052;2023-12-07T10:24:10;101230.56;;;19.78;47.73
83248;BME280;73465;51.038;7.052;2023-12-07T10:26:36;101239.66;;;19.75;47.81
83248;BME280;73465;51.038;7.052;2023-12-07T10:29:04;101214.34;;;19.56;48.02
83248;BME280;73465;51.038;7.052;2023-12-07T10:31:30;101210.53;;;19.72;47.72
83248;BME280;73465;51.038;7.052;2023-12-07T10:33:56;101207.09;;;19.59;47.85
83248;BME280;73465;51.038;7.052;2023-12-07T10:36:21;101219.34;;;19.61;47.70
83248;BME280;73465;51.038;7.052;2023-12-07T10:38:47;101197.59;;;19.54;47.80
83248;BME280;73465;51.038;7.052;2023-12-07T10:41:18;101201.00;;;19.56;47.93
83248;BME280;73465;51.038;7.052;2023-12-07T10:43:44;101195.66;;;19.56;48.01
83248;BME280;73465;51.038;7.052;2023-12-07T10:46:15;101197.03;;;19.62;47.87
83248;BME280;73465;51.038;7.052;2023-12-07T10:48:44;101197.38;;;19.58;47.85
83248;BME280;73465;51.038;7.052;2023-12-07T10:51:34;101178.53;;;19.59;47.86
83248;BME280;73465;51.038;7.052;2023-12-07T10:54:03;101165.06;;;19.61;47.61
83248;BME280;73465;51.038;7.052;2023-12-07T10:56:35;101165.47;;;19.67;47.40
83248;BME280;73465;51.038;7.052;2023-12-07T10:59:06;101165.47;;;19.79;47.33
83248;BME280;73465;51.038;7.052;2023-12-07T11:01:32;101160.75;;;19.82;47.36
83248;BME280;73465;51.038;7.052;2023-12-07T11:03:58;101150.06;;;19.82;47.50
83248;BME280;73465;51.038;7.052;2023-12-07T11:06:25;101144.59;;;19.84;47.43
83248;BME280;73465;51.038;7.052;2023-12-07T11:08:56;101120.91;;;19.79;47.25
83248;BME280;73465;51.038;7.052;2023-12-07T11:11:31;101120.69;;;19.94;46.97
83248;BME280;73465;51.038;7.052;2023-12-07T11:14:07;101124.84;;;19.98;47.12
83248;BME280;73465;51.038;7.052;2023-12-07T11:16:35;101128.59;;;19.95;46.88
83248;BME280;73465;51.038;7.052;2023-12-07T11:19:02;101106.34;;;19.83;47.18
83248;BME280;73465;51.038;7.052;2023-12-07T11:21:28;101107.09;;;19.85;47.04
83248;BME280;73465;51.038;7.052;2023-12-07T11:23:54;101115.47;;;19.92;47.28
83248;BME280;73465;51.038;7.052;2023-12-07T11:26:22;101097.84;;;19.90;47.15
83248;BME280;73465;51.038;7.052;2023-12-07T11:28:47;101100.16;;;19.94;47.09
83248;BME280;73465;51.038;7.052;2023-12-07T11:31:13;101108.66;;;19.99;46.83
83248;BME280;73465;51.038;7.052;2023-12-07T11:33:38;101097.50;;;19.94;46.88
83248;BME280;73465;51.038;7.052;2023-12-07T11:36:08;101090.56;;;19.92;47.11
83248;BME280;73465;51.038;7.052;2023-12-07T11:38:39;101090.69;;;20.13;47.36
83248;BME280;73465;51.038;7.052;2023-12-07T11:41:21;101077.75;;;20.41;46.56
83248;BME280;73465;51.038;7.052;2023-12-07T11:43:46;101074.91;;;20.53;46.24
83248;BME280;73465;51.038;7.052;2023-12-07T11:46:12;101072.88;;;20.46;46.58
83248;BME280;73465;51.038;7.052;2023-12-07T11:48:39;101062.72;;;20.72;46.19
83248;BME280;73465;51.038;7.052;2023-12-07T11:51:06;101048.66;;;20.91;45.70
83248;BME280;73465;51.038;7.052;2023-12-07T11:53:36;101054.09;;;21.01;45.38
83248;BME280;73465;51.038;7.052;2023-12-07T11:56:04;101056.25;;;21.07;45.39
83248;BME280;73465;51.038;7.052;2023-12-07T11:58:32;101049.63;;;21.11;45.30
83248;BME280;73465;51.038;7.052;2023-12-07T12:00:58;101044.03;;;21.14;45.33
83248;BME280;73465;51.038;7.052;2023-12-07T12:03:24;101039.13;;;21.20;45.22
83248;BME280;73465;51.038;7.052;2023-12-07T12:05:49;101034.50;;;21.22;45.21
83248;BME280;73465;51.038;7.052;2023-12-07T12:08:16;101034.22;;;21.25;45.27
83248;BME280;73465;51.038;7.052;2023-12-07T12:10:46;101036.66;;;21.28;45.22
83248;BME280;73465;51.038;7.052;2023-12-07T12:13:12;101036.66;;;21.28;45.24
83248;BME280;73465;51.038;7.052;2023-12-07T12:15:38;101033.97;;;21.28;45.11
83248;BME280;73465;51.038;7.052;2023-12-07T12:18:06;101036.91;;;21.25;45.27
83248;BME280;73465;51.038;7.052;2023-12-07T12:20:31;101035.63;;;21.19;45.60
83248;BME280;73465;51.038;7.052;2023-12-07T12:22:58;101038.00;;;21.43;45.26
83248;BME280;73465;51.038;7.052;2023-12-07T12:25:25;101041.72;;;21.52;45.14
83248;BME280;73465;51.038;7.052;2023-12-07T12:28:13;101039.63;;;21.56;45.19
83248;BME280;73465;51.038;7.052;2023-12-07T12:30:40;101034.09;;;21.47;45.63
83248;BME280;73465;51.038;7.052;2023-12-07T12:33:05;101031.59;;;21.56;45.49
83248;BME280;73465;51.038;7.052;2023-12-07T12:35:30;101030.63;;;21.57;45.51
83248;BME280;73465;51.038;7.052;2023-12-07T12:37:57;101011.25;;;21.53;45.44
83248;BME280;73465;51.038;7.052;2023-12-07T12:40:23;101020.63;;;21.59;45.43
83248;BME280;73465;51.038;7.052;2023-12-07T12:42:51;101013.56;;;21.58;45.64
83248;BME280;73465;51.038;7.052;2023-12-07T12:45:17;100999.19;;;21.59;45.56
83248;BME280;73465;51.038;7.052;2023-12-07T12:47:44;101005.19;;;21.51;45.91
83248;BME280;73465;51.038;7.052;2023-12-07T12:50:11;101002.03;;;21.36;46.34
83248;BME280;73465;51.038;7.052;2023-12-07T12:52:37;100994.88;;;21.46;46.25
83248;BME280;73465;51.038;7.052;2023-12-07T12:55:08;100995.69;;;21.47;46.22